Main page
METAR-TAF:

METAR-TAF

Airports :

Yakutsk Airport

Yakutsk, Russia

latitude: 62-01N, longitude: 129-43E, elevation: 103 m

Current weather observation

The report was made 46 minutes ago, at 22:00 UTC
Wind 4 kt from the North/Northwest
Temperature -43°C
Humidity 57%
Pressure 1024 hPa
Visibility: 1000 m
mist

METAR: UEEE 072200Z 33002MPS 1200 1000SW R23L/P2000N BR NSC M43/M48 Q1024 R23L/450150 NOSIG RMK QFE759

Time: 07:46 (22:46 UTC)

Forecast

The report was made 2 hours and 46 minutes ago, at 20:00 UTC
Forecast valid from 07 at 21 UTC to 09 at 03 UTC
Wind 6 kt from the Northeast
Visibility: 0700 m
fog
Temporary
from 07 at 21 UTC to 08 at 06 UTC
Visibility: 0300 m
at a height of 300 ft
fog
Temporary
from 08 at 06 UTC to 08 at 18 UTC
Visibility: 2100 m
at a height of 700 ft
mist

TAF: UEEE 072000Z 0721/0903 04003MPS 0700 FG NSC TXM39/0805Z TNM44/0723Z TEMPO 0721/0806 0300 FG VV003 TEMPO 0806/0818 2100 BR VV007

Weather observations and forecasts of more than 4000 airports (METAR and TAF reports).

The available stations are represented by yellow and red dots on the map.

Hover mouse over dot to see the name of the station.

Then click to see weather observations and forecasts.

To change the map : click on the green buttons with a black cross to zoom in, on the green button with a dash to zoom out, or on the green arrows for adjacent maps.


METAR-TAF: